Terminal Aerodrome Forecast
Issued by NWS

Home | Current Version | Previous Version | Graphics & Text | Print | Product List | Glossary On
Versions: 1 2 3 4 5 6 7 8 9 10 11 12 13 14 15 16 17 18 19 20 21 22 23 24 25 26
000
FTUS43 KLOT 211515 AAA
TAFGYY
TAF AMD
KGYY 211515Z 2115/2212 22010KT 5SM BR SCT025 BKN080
      TEMPO 2116/2118 3SM BR BKN025
     FM211900 28006KT P6SM SCT025 BKN200
     FM212200 03004KT P6SM SKC
     FM220500 20005KT P6SM SKC=

USA.gov is the U.S. government's official web portal to all federal, state and local government web resources and services.